createdAt,value
2023-04-18T00:00:02.987Z,61.35
2023-04-18T00:01:02.962Z,60.11
2023-04-18T00:02:03.052Z,59.51
2023-04-18T00:03:04.709Z,59.59
2023-04-18T00:04:04.146Z,60.85
2023-04-18T00:05:03.011Z,61.25
2023-04-18T00:06:02.910Z,60.67
2023-04-18T00:07:02.905Z,60.25
2023-04-18T00:08:02.902Z,61.39
2023-04-18T00:09:02.923Z,60.78
2023-04-18T00:10:02.896Z,59.72
2023-04-18T00:11:02.871Z,61.79
2023-04-18T00:12:02.858Z,59.75
2023-04-18T00:13:02.846Z,61.86
2023-04-18T00:14:02.835Z,61.13
2023-04-18T00:15:02.864Z,60.79
2023-04-18T00:16:02.845Z,60.80
2023-04-18T00:17:02.951Z,61.42
2023-04-18T00:18:02.831Z,61.22
2023-04-18T00:19:02.822Z,60.64
2023-04-18T00:20:02.818Z,59.97
2023-04-18T00:21:02.772Z,59.89
2023-04-18T00:22:02.759Z,60.26
2023-04-18T00:23:02.751Z,60.25
2023-04-18T00:24:02.762Z,58.34
2023-04-18T00:25:02.762Z,60.38
2023-04-18T00:26:02.756Z,60.33
2023-04-18T00:27:02.714Z,61.40
2023-04-18T00:28:02.714Z,61.15
2023-04-18T00:29:02.714Z,61.10
2023-04-18T00:30:02.700Z,60.58
2023-04-18T00:31:02.738Z,60.86
2023-04-18T00:32:02.679Z,61.10
2023-04-18T00:33:02.690Z,61.51
2023-04-18T00:34:02.699Z,61.68
2023-04-18T00:35:02.660Z,63.39
2023-04-18T00:36:02.640Z,61.44
2023-04-18T00:37:02.629Z,60.16
2023-04-18T00:38:02.618Z,62.05
2023-04-18T00:39:02.620Z,61.94
2023-04-18T00:40:02.600Z,61.43
2023-04-18T00:41:02.588Z,61.76
2023-04-18T00:42:02.586Z,60.58
2023-04-18T00:43:02.570Z,60.64
2023-04-18T00:44:02.557Z,58.92
2023-04-18T00:45:02.572Z,60.89
2023-04-18T00:46:02.601Z,59.66
2023-04-18T00:47:02.566Z,60.14
2023-04-18T00:48:02.571Z,61.47
2023-04-18T00:49:02.520Z,61.20
2023-04-18T00:50:02.527Z,61.96
2023-04-18T00:51:02.508Z,62.31
2023-04-18T00:52:02.502Z,60.93
2023-04-18T00:53:02.484Z,62.44
2023-04-18T00:54:02.479Z,61.09
2023-04-18T00:55:02.484Z,61.37
2023-04-18T00:56:03.461Z,61.87
2023-04-18T00:57:02.452Z,61.35
2023-04-18T00:58:02.443Z,60.50
2023-04-18T00:59:02.429Z,60.23
2023-04-18T01:00:02.454Z,62.56
2023-04-18T01:01:02.424Z,62.21
2023-04-18T01:02:02.529Z,62.28
2023-04-18T01:03:02.705Z,61.96
2023-04-18T01:04:02.479Z,60.42
2023-04-18T01:05:02.406Z,61.52
2023-04-18T01:06:02.368Z,60.64
2023-04-18T01:07:02.367Z,61.46
2023-04-18T01:08:02.385Z,60.92
2023-04-18T01:09:02.342Z,60.55
2023-04-18T01:10:02.367Z,60.68
2023-04-18T01:11:02.326Z,62.04
2023-04-18T01:12:02.313Z,61.09
2023-04-18T01:13:02.357Z,62.84
2023-04-18T01:14:02.289Z,60.86
2023-04-18T01:15:03.308Z,63.54
2023-04-18T01:16:02.322Z,61.39
2023-04-18T01:17:02.300Z,61.88
2023-04-18T01:18:02.287Z,62.03
2023-04-18T01:19:02.254Z,61.49
2023-04-18T01:20:02.252Z,62.25
2023-04-18T01:21:02.229Z,63.34
2023-04-18T01:22:02.225Z,61.11
2023-04-18T01:23:02.210Z,61.49
2023-04-18T01:24:02.207Z,63.01
2023-04-18T01:25:02.249Z,61.60
2023-04-18T01:26:02.182Z,60.22
2023-04-18T01:27:02.242Z,63.17
2023-04-18T01:28:02.167Z,61.97
2023-04-18T01:29:02.157Z,61.57
2023-04-18T01:30:02.275Z,62.32
2023-04-18T01:31:02.155Z,62.53
2023-04-18T01:32:02.126Z,63.24
2023-04-18T01:33:02.224Z,62.32
2023-04-18T01:34:02.114Z,62.36
2023-04-18T01:35:02.116Z,62.43
2023-04-18T01:36:02.096Z,61.19
2023-04-18T01:37:02.117Z,62.51
2023-04-18T01:38:02.072Z,61.34
2023-04-18T01:39:02.065Z,62.35
2023-04-18T01:40:02.098Z,62.72
2023-04-18T01:41:02.058Z,60.19
2023-04-18T01:42:02.088Z,61.75
2023-04-18T01:43:02.121Z,63.66
2023-04-18T01:44:02.030Z,62.05
2023-04-18T01:45:02.024Z,62.85
2023-04-18T01:46:02.012Z,61.31
2023-04-18T01:47:02.083Z,62.89
2023-04-18T01:48:02.049Z,62.27
2023-04-18T01:49:01.970Z,62.95
2023-04-18T01:50:01.963Z,60.82
2023-04-18T01:51:01.972Z,61.04
2023-04-18T01:52:01.984Z,60.94
2023-04-18T01:53:01.937Z,62.14
2023-04-18T01:54:01.989Z,60.90
2023-04-18T01:55:01.915Z,61.60
2023-04-18T01:56:01.919Z,62.90
2023-04-18T01:57:01.912Z,62.65
2023-04-18T01:58:01.894Z,62.70
2023-04-18T01:59:01.886Z,63.33
2023-04-18T02:00:01.889Z,61.01
2023-04-18T02:01:01.925Z,63.20
2023-04-18T02:02:01.897Z,63.56
2023-04-18T02:03:02.109Z,63.41
2023-04-18T02:04:01.931Z,63.26
2023-04-18T02:05:01.835Z,62.37
2023-04-18T02:06:01.857Z,63.65
2023-04-18T02:07:01.866Z,63.02
2023-04-18T02:08:01.800Z,62.30
2023-04-18T02:09:01.792Z,63.83
2023-04-18T02:10:01.781Z,61.74
2023-04-18T02:11:01.788Z,61.68
2023-04-18T02:12:01.816Z,62.73
2023-04-18T02:13:01.768Z,63.11
2023-04-18T02:14:01.746Z,61.64
2023-04-18T02:15:01.744Z,62.28
2023-04-18T02:16:01.827Z,62.92
2023-04-18T02:17:01.773Z,62.61
2023-04-18T02:18:01.788Z,60.54
2023-04-18T02:19:01.699Z,64.01
2023-04-18T02:20:01.698Z,63.38
2023-04-18T02:21:01.714Z,62.63
2023-04-18T02:22:01.745Z,62.96
2023-04-18T02:23:01.668Z,63.09
2023-04-18T02:24:01.659Z,61.98
2023-04-18T02:25:01.679Z,63.11
2023-04-18T02:26:01.659Z,64.54
2023-04-18T02:27:01.634Z,63.10
2023-04-18T02:28:01.632Z,64.18
2023-04-18T02:29:01.618Z,62.86
2023-04-18T02:30:01.646Z,63.14
2023-04-18T02:31:01.611Z,63.25
2023-04-18T02:32:01.650Z,62.07
2023-04-18T02:33:01.649Z,64.09
2023-04-18T02:34:01.572Z,62.95
2023-04-18T02:35:01.618Z,62.59
2023-04-18T02:36:01.595Z,62.30
2023-04-18T02:37:01.596Z,62.91
2023-04-18T02:38:01.547Z,62.89
2023-04-18T02:39:01.564Z,62.91
2023-04-18T02:40:01.518Z,64.46
2023-04-18T02:41:01.527Z,65.28
2023-04-18T02:42:01.518Z,62.92
2023-04-18T02:43:01.601Z,62.63
2023-04-18T02:44:01.492Z,62.75
2023-04-18T02:45:01.472Z,64.16
2023-04-18T02:46:01.534Z,65.23
2023-04-18T02:47:01.546Z,64.10
2023-04-18T02:48:01.473Z,61.63
2023-04-18T02:49:01.434Z,62.58
2023-04-18T02:50:01.469Z,64.51
2023-04-18T02:51:01.449Z,63.68
2023-04-18T02:52:01.428Z,63.88
2023-04-18T02:53:01.436Z,62.22
2023-04-18T02:54:01.393Z,62.43
2023-04-18T02:55:01.384Z,64.17
2023-04-18T02:56:01.393Z,63.75
2023-04-18T02:57:01.371Z,64.67
2023-04-18T02:58:01.378Z,65.28
2023-04-18T02:59:01.425Z,63.82
2023-04-18T03:00:01.350Z,63.34
2023-04-18T03:01:01.376Z,64.94
2023-04-18T03:02:01.377Z,64.88
2023-04-18T03:03:01.512Z,63.58
2023-04-18T03:04:01.303Z,64.45
2023-04-18T03:05:01.368Z,63.58
2023-04-18T03:06:01.297Z,64.75
2023-04-18T03:07:01.286Z,64.12
2023-04-18T03:08:01.273Z,64.76
2023-04-18T03:09:01.258Z,64.64
2023-04-18T03:10:01.269Z,61.96
2023-04-18T03:11:01.248Z,64.61
2023-04-18T03:12:01.228Z,64.06
2023-04-18T03:13:01.213Z,62.83
2023-04-18T03:14:01.210Z,64.27
2023-04-18T03:15:01.199Z,65.61
2023-04-18T03:16:01.245Z,63.68
2023-04-18T03:17:01.194Z,65.21
2023-04-18T03:18:01.218Z,63.69
2023-04-18T03:19:01.167Z,64.57
2023-04-18T03:20:01.174Z,62.42
2023-04-18T03:21:01.157Z,64.18
2023-04-18T03:22:01.138Z,65.04
2023-04-18T03:23:01.130Z,63.49
2023-04-18T03:24:01.128Z,63.75
2023-04-18T03:25:01.122Z,64.23
2023-04-18T03:26:01.117Z,65.05
2023-04-18T03:27:01.091Z,65.11
2023-04-18T03:28:01.089Z,63.16
2023-04-18T03:29:01.082Z,64.45
2023-04-18T03:30:01.062Z,64.92
2023-04-18T03:31:01.086Z,63.17
2023-04-18T03:32:01.049Z,64.86
2023-04-18T03:33:01.118Z,64.65
2023-04-18T03:34:01.031Z,66.80
2023-04-18T03:35:01.019Z,65.02
2023-04-18T03:36:01.036Z,63.28
2023-04-18T03:37:01.007Z,64.90
2023-04-18T03:38:00.994Z,64.18
2023-04-18T03:39:00.994Z,63.08
2023-04-18T03:40:00.966Z,64.37
2023-04-18T03:41:00.977Z,66.06
2023-04-18T03:42:00.952Z,65.12
2023-04-18T03:43:00.993Z,65.71
2023-04-18T03:44:00.937Z,66.35
2023-04-18T03:45:00.934Z,65.79
2023-04-18T03:46:00.940Z,65.38
2023-04-18T03:47:00.910Z,64.53
2023-04-18T03:48:00.944Z,67.32
2023-04-18T03:49:00.913Z,66.69
2023-04-18T03:50:00.928Z,63.53
2023-04-18T03:51:00.881Z,65.30
2023-04-18T03:52:00.908Z,65.19
2023-04-18T03:53:00.848Z,65.91
2023-04-18T03:54:00.846Z,65.23
2023-04-18T03:55:00.840Z,65.88
2023-04-18T03:56:00.844Z,64.59
2023-04-18T03:57:00.820Z,66.78
2023-04-18T03:58:00.812Z,66.94
2023-04-18T03:59:00.808Z,66.86
2023-04-18T04:00:00.797Z,67.23
2023-04-18T04:01:00.793Z,64.89
2023-04-18T04:02:00.913Z,66.19
2023-04-18T04:03:00.953Z,66.57
2023-04-18T04:04:00.848Z,66.31
2023-04-18T04:05:00.761Z,64.42
2023-04-18T04:06:00.757Z,63.02
2023-04-18T04:07:00.736Z,67.67
2023-04-18T04:08:00.728Z,68.31
2023-04-18T04:09:00.720Z,66.31
2023-04-18T04:10:00.707Z,65.56
2023-04-18T04:11:00.713Z,66.27
2023-04-18T04:12:00.692Z,66.39
2023-04-18T04:13:00.679Z,66.53
2023-04-18T04:14:00.683Z,66.71
2023-04-18T04:15:00.702Z,66.61
2023-04-18T04:16:00.738Z,66.06
2023-04-18T04:17:00.636Z,65.88
2023-04-18T04:18:00.656Z,66.68
2023-04-18T04:19:00.621Z,66.09
2023-04-18T04:20:00.641Z,66.86
2023-04-18T04:21:00.625Z,66.05
2023-04-18T04:22:00.605Z,67.10
2023-04-18T04:23:00.605Z,67.34
2023-04-18T04:24:00.577Z,64.85
2023-04-18T04:25:00.569Z,65.60
2023-04-18T04:26:00.576Z,67.43
2023-04-18T04:27:00.554Z,67.01
2023-04-18T04:28:00.529Z,67.34
2023-04-18T04:29:01.571Z,65.32
2023-04-18T04:30:00.526Z,68.06
2023-04-18T04:31:00.616Z,66.63
2023-04-18T04:32:00.543Z,67.89
2023-04-18T04:33:00.505Z,65.62
2023-04-18T04:34:00.495Z,66.73
2023-04-18T04:35:00.486Z,68.80
2023-04-18T04:36:00.491Z,67.96
2023-04-18T04:37:00.460Z,66.23
2023-04-18T04:38:00.451Z,67.26
2023-04-18T04:39:00.440Z,67.09
2023-04-18T04:40:00.436Z,67.87
2023-04-18T04:41:00.439Z,68.02
2023-04-18T04:42:00.426Z,68.28
2023-04-18T04:43:00.403Z,68.81
2023-04-18T04:44:00.400Z,65.92
2023-04-18T04:45:00.460Z,65.84
2023-04-18T04:46:00.397Z,68.78
2023-04-18T04:47:01.372Z,68.09
2023-04-18T04:48:00.422Z,67.13
2023-04-18T04:49:00.362Z,67.99
2023-04-18T04:50:00.360Z,66.27
2023-04-18T04:51:00.344Z,68.93
2023-04-18T04:52:01.893Z,67.87
2023-04-18T04:53:00.321Z,67.14
2023-04-18T04:54:00.309Z,67.38
2023-04-18T04:55:00.300Z,68.45
2023-04-18T04:56:00.335Z,67.24
2023-04-18T04:57:00.284Z,67.33
2023-04-18T04:58:00.270Z,67.13
2023-04-18T04:59:00.292Z,67.40
2023-04-18T05:00:00.269Z,66.82
2023-04-18T05:01:00.294Z,65.16
2023-04-18T05:02:00.289Z,69.41
2023-04-18T05:03:00.356Z,67.80
2023-04-18T05:04:00.413Z,67.00
2023-04-18T05:05:00.225Z,68.06
2023-04-18T05:06:00.228Z,67.87
2023-04-18T05:07:00.198Z,67.33
2023-04-18T05:08:00.228Z,68.65
2023-04-18T05:09:00.180Z,66.57
2023-04-18T05:10:00.189Z,69.40
2023-04-18T05:11:00.214Z,68.64
2023-04-18T05:12:00.150Z,66.33
2023-04-18T05:13:00.144Z,68.15
2023-04-18T05:14:00.124Z,67.46
2023-04-18T05:15:00.138Z,68.74
2023-04-18T05:16:00.122Z,65.91
2023-04-18T05:17:00.231Z,66.44
2023-04-18T05:18:00.175Z,68.10
2023-04-18T05:19:00.095Z,69.52
2023-04-18T05:20:00.091Z,68.94
2023-04-18T05:21:00.082Z,66.20
2023-04-18T05:22:00.098Z,67.28
2023-04-18T05:23:00.056Z,67.49
2023-04-18T05:24:00.062Z,68.21
2023-04-18T05:25:00.036Z,67.60
2023-04-18T05:26:00.046Z,67.72
2023-04-18T05:27:00.016Z,68.27
2023-04-18T05:27:59.996Z,68.01
2023-04-18T05:29:00.000Z,68.93
2023-04-18T05:29:59.981Z,69.50
2023-04-18T05:30:59.995Z,68.57
2023-04-18T05:32:00.968Z,69.34
2023-04-18T05:32:59.984Z,67.13
2023-04-18T05:33:59.942Z,67.96
2023-04-18T05:34:59.941Z,69.81
2023-04-18T05:35:59.951Z,69.35
2023-04-18T05:36:59.915Z,67.84
2023-04-18T05:37:59.961Z,68.60
2023-04-18T05:38:59.898Z,67.68
2023-04-18T05:40:00.907Z,69.13
2023-04-18T05:41:00.894Z,70.56
2023-04-18T05:41:59.866Z,69.68
2023-04-18T05:42:59.862Z,69.02
2023-04-18T05:44:05.216Z,67.73
2023-04-18T05:45:01.857Z,68.72
2023-04-18T05:45:59.897Z,69.99
2023-04-18T05:46:59.828Z,68.58
2023-04-18T05:47:59.880Z,67.57
2023-04-18T05:48:59.833Z,70.89
2023-04-18T05:49:59.800Z,67.92
2023-04-18T05:50:59.866Z,67.95
2023-04-18T05:51:59.785Z,69.96
2023-04-18T05:52:59.783Z,69.60
2023-04-18T05:53:59.762Z,66.95
2023-04-18T05:54:59.762Z,68.29
2023-04-18T05:55:59.762Z,69.90
2023-04-18T05:56:59.744Z,70.11
2023-04-18T05:57:59.731Z,70.89
2023-04-18T05:58:59.722Z,70.16
2023-04-18T05:59:59.713Z,67.98
2023-04-18T06:00:59.710Z,69.45
2023-04-18T06:01:59.733Z,69.46
2023-04-18T06:03:00.011Z,67.49
2023-04-18T06:03:59.812Z,67.44
2023-04-18T06:04:59.836Z,70.79
2023-04-18T06:05:59.756Z,71.90
2023-04-18T06:06:59.788Z,70.03
2023-04-18T06:07:59.641Z,69.31
2023-04-18T06:08:59.639Z,68.71
2023-04-18T06:09:59.653Z,69.54
2023-04-18T06:10:59.623Z,71.43
2023-04-18T06:11:59.665Z,70.85
2023-04-18T06:12:59.597Z,69.59
2023-04-18T06:13:59.583Z,70.23
2023-04-18T06:14:59.571Z,71.39
2023-04-18T06:15:59.602Z,71.04
2023-04-18T06:16:59.583Z,72.07
2023-04-18T06:17:59.619Z,70.92
2023-04-18T06:19:01.240Z,69.45
2023-04-18T06:20:00.522Z,69.96
2023-04-18T06:21:00.530Z,69.45
2023-04-18T06:21:59.526Z,70.59
2023-04-18T06:22:59.562Z,69.74
2023-04-18T06:23:59.502Z,72.23
2023-04-18T06:24:59.494Z,69.37
2023-04-18T06:25:59.512Z,69.23
2023-04-18T06:26:59.475Z,68.82
2023-04-18T06:27:59.468Z,70.63
2023-04-18T06:28:59.452Z,70.86
2023-04-18T06:29:59.455Z,72.56
2023-04-18T06:30:59.469Z,72.98
2023-04-18T06:31:59.480Z,71.53
2023-04-18T06:32:59.485Z,72.21
2023-04-18T06:33:59.410Z,71.35
2023-04-18T06:34:59.401Z,72.70
2023-04-18T06:35:59.412Z,71.70
2023-04-18T06:36:59.381Z,70.43
2023-04-18T06:37:59.420Z,70.74
2023-04-18T06:38:59.487Z,71.30
2023-04-18T06:39:59.367Z,69.17
2023-04-18T06:40:59.360Z,71.85
2023-04-18T06:41:59.335Z,69.41
2023-04-18T06:42:59.327Z,72.69
2023-04-18T06:44:04.143Z,72.35
2023-04-18T06:45:01.306Z,72.06
2023-04-18T06:45:59.360Z,71.77
2023-04-18T06:46:59.302Z,70.92
2023-04-18T06:47:59.315Z,71.56
2023-04-18T06:48:59.268Z,73.26
2023-04-18T06:49:59.259Z,71.90
2023-04-18T06:50:59.263Z,71.52
2023-04-18T06:51:59.237Z,71.19
2023-04-18T06:52:59.225Z,72.78
2023-04-18T06:53:59.216Z,72.15
2023-04-18T06:54:59.206Z,72.45
2023-04-18T06:55:59.210Z,73.00
2023-04-18T06:56:59.213Z,72.17
2023-04-18T06:57:59.177Z,71.19
2023-04-18T06:58:59.175Z,72.23
2023-04-18T06:59:59.171Z,71.71
2023-04-18T07:00:59.240Z,73.26
2023-04-18T07:01:59.158Z,72.45
2023-04-18T07:02:59.274Z,72.31
2023-04-18T07:03:59.241Z,71.57
2023-04-18T07:04:59.118Z,71.39
2023-04-18T07:05:59.115Z,73.98
2023-04-18T07:06:59.102Z,74.49
2023-04-18T07:07:59.086Z,73.42
2023-04-18T07:08:59.079Z,72.26
2023-04-18T07:09:59.074Z,71.73
2023-04-18T07:10:59.282Z,73.52
2023-04-18T07:11:59.049Z,72.21
2023-04-18T07:12:59.042Z,72.08
2023-04-18T07:13:59.038Z,72.64
2023-04-18T07:14:59.021Z,72.59
2023-04-18T07:15:59.020Z,74.02
2023-04-18T07:16:59.063Z,74.12
2023-04-18T07:17:59.038Z,74.85
2023-04-18T07:18:58.996Z,74.54
2023-04-18T07:19:58.977Z,72.86
2023-04-18T07:20:58.973Z,71.40
2023-04-18T07:21:59.002Z,71.04
2023-04-18T07:22:58.948Z,73.48
2023-04-18T07:23:58.939Z,73.53
2023-04-18T07:24:58.974Z,74.82
2023-04-18T07:25:59.934Z,74.16
2023-04-18T07:26:59.027Z,73.37
2023-04-18T07:27:58.907Z,73.12
2023-04-18T07:28:58.889Z,73.27
2023-04-18T07:29:58.882Z,73.16
2023-04-18T07:30:58.918Z,73.78
2023-04-18T07:31:58.900Z,74.56
2023-04-18T07:32:58.889Z,74.12
2023-04-18T07:33:58.869Z,73.99
2023-04-18T07:34:58.848Z,73.18
2023-04-18T07:35:58.841Z,73.23
2023-04-18T07:36:58.832Z,73.99
2023-04-18T07:37:58.863Z,74.49
2023-04-18T07:38:58.803Z,73.90
2023-04-18T07:39:58.806Z,74.44
2023-04-18T07:40:58.794Z,73.20
2023-04-18T07:41:58.781Z,72.48
2023-04-18T07:42:58.830Z,74.69
2023-04-18T07:43:58.762Z,75.62
2023-04-18T07:44:58.755Z,74.77
2023-04-18T07:45:58.778Z,75.35
2023-04-18T07:46:58.737Z,73.61
2023-04-18T07:47:58.736Z,75.06
2023-04-18T07:48:58.716Z,74.09
2023-04-18T07:49:58.729Z,74.85
2023-04-18T07:50:58.710Z,75.33
2023-04-18T07:51:58.691Z,75.33
2023-04-18T07:52:58.676Z,75.06
2023-04-18T07:53:58.668Z,74.10
2023-04-18T07:54:58.676Z,75.91
2023-04-18T07:55:58.661Z,74.73
2023-04-18T07:56:58.644Z,74.30
2023-04-18T07:57:58.645Z,73.61
2023-04-18T07:58:58.983Z,73.53
2023-04-18T07:59:58.638Z,75.48
2023-04-18T08:00:58.619Z,75.95
2023-04-18T08:01:58.645Z,75.87
2023-04-18T08:02:58.699Z,74.69
2023-04-18T08:03:58.743Z,74.74
2023-04-18T08:04:58.819Z,76.16
2023-04-18T08:05:58.584Z,75.23
2023-04-18T08:06:58.548Z,75.07
2023-04-18T08:07:58.543Z,75.42
2023-04-18T08:08:58.529Z,75.36
2023-04-18T08:09:58.525Z,75.85
2023-04-18T08:10:58.552Z,75.45
2023-04-18T08:11:58.506Z,75.03
2023-04-18T08:12:58.499Z,76.09
2023-04-18T08:13:58.492Z,75.30
2023-04-18T08:14:58.537Z,75.40
2023-04-18T08:15:58.520Z,76.31
2023-04-18T08:16:58.461Z,75.78
2023-04-18T08:17:58.494Z,76.92
2023-04-18T08:18:58.442Z,75.30
2023-04-18T08:19:58.439Z,74.92
2023-04-18T08:20:58.439Z,73.24
2023-04-18T08:21:58.422Z,75.02
2023-04-18T08:23:07.441Z,75.69
2023-04-18T08:24:00.424Z,74.33
2023-04-18T08:25:04.425Z,75.48
2023-04-18T08:26:00.489Z,75.97
2023-04-18T08:26:58.372Z,73.99
2023-04-18T08:27:58.407Z,74.60
2023-04-18T08:28:58.350Z,74.61
2023-04-18T08:29:59.354Z,74.55
2023-04-18T08:30:58.593Z,72.89
2023-04-18T08:31:58.415Z,73.68
2023-04-18T08:32:58.340Z,74.68
2023-04-18T08:33:58.306Z,74.56
2023-04-18T08:34:58.300Z,74.55
2023-04-18T08:35:58.284Z,73.88
2023-04-18T08:36:58.291Z,73.98
2023-04-18T08:37:58.316Z,73.75
2023-04-18T08:38:58.256Z,73.57
2023-04-18T08:39:58.259Z,72.83
2023-04-18T08:40:58.248Z,70.85
2023-04-18T08:41:58.250Z,71.92
2023-04-18T08:42:58.231Z,71.96
2023-04-18T08:43:58.264Z,71.88
2023-04-18T08:44:58.210Z,73.29
2023-04-18T08:45:58.222Z,72.82
2023-04-18T08:46:58.202Z,73.26
2023-04-18T08:47:58.270Z,72.66
2023-04-18T08:48:58.183Z,72.73
2023-04-18T08:49:58.171Z,71.92
2023-04-18T08:50:58.153Z,73.96
2023-04-18T08:51:58.170Z,72.11
2023-04-18T08:52:58.135Z,71.02
2023-04-18T08:53:58.124Z,71.15
2023-04-18T08:54:58.119Z,73.14
2023-04-18T08:55:58.105Z,73.63
2023-04-18T08:56:58.110Z,74.51
2023-04-18T08:57:58.087Z,72.52
2023-04-18T08:58:58.082Z,72.84
2023-04-18T08:59:58.077Z,70.92
2023-04-18T09:00:58.076Z,70.45
2023-04-18T09:01:58.100Z,72.93
2023-04-18T09:02:58.149Z,72.63
2023-04-18T09:03:58.081Z,73.36
2023-04-18T09:04:58.041Z,72.15
2023-04-18T09:05:58.016Z,72.17
2023-04-18T09:06:58.018Z,70.89
2023-04-18T09:07:58.003Z,73.15
2023-04-18T09:08:57.990Z,71.49
2023-04-18T09:09:57.996Z,69.48
2023-04-18T09:10:57.969Z,71.60
2023-04-18T09:11:57.971Z,70.43
2023-04-18T09:12:57.951Z,70.27
2023-04-18T09:13:57.932Z,71.41
2023-04-18T09:14:57.991Z,70.70
2023-04-18T09:15:57.917Z,70.56
2023-04-18T09:16:57.972Z,72.11
2023-04-18T09:17:58.087Z,72.56
2023-04-18T09:18:57.898Z,69.65
2023-04-18T09:19:57.884Z,69.57
2023-04-18T09:20:57.877Z,69.99
2023-04-18T09:21:57.882Z,71.85
2023-04-18T09:22:57.866Z,71.73
2023-04-18T09:23:57.855Z,70.75
2023-04-18T09:24:57.849Z,72.72
2023-04-18T09:25:57.833Z,71.10
2023-04-18T09:26:57.826Z,70.47
2023-04-18T09:27:58.815Z,68.49
2023-04-18T09:28:57.796Z,69.03
2023-04-18T09:29:58.159Z,72.47
2023-04-18T09:30:58.839Z,71.67
2023-04-18T09:31:57.829Z,71.37
2023-04-18T09:32:57.855Z,69.53
2023-04-18T09:33:57.755Z,69.98
2023-04-18T09:34:57.761Z,70.28
2023-04-18T09:35:57.740Z,67.60
2023-04-18T09:36:57.883Z,69.67
2023-04-18T09:37:57.723Z,71.65
2023-04-18T09:38:57.703Z,69.23
2023-04-18T09:39:57.698Z,71.09
2023-04-18T09:40:57.711Z,68.79
2023-04-18T09:41:57.691Z,70.40
2023-04-18T09:42:57.680Z,68.25
2023-04-18T09:43:57.662Z,69.07
2023-04-18T09:44:57.661Z,69.61
2023-04-18T09:45:57.648Z,67.08
2023-04-18T09:46:57.649Z,68.92
2023-04-18T09:47:57.661Z,71.83
2023-04-18T09:48:57.621Z,69.19
2023-04-18T09:49:57.620Z,66.32
2023-04-18T09:50:57.599Z,68.10
2023-04-18T09:51:57.609Z,66.78
2023-04-18T09:52:57.578Z,66.55
2023-04-18T09:53:57.568Z,68.21
2023-04-18T09:54:57.557Z,68.14
2023-04-18T09:55:57.958Z,68.96
2023-04-18T09:56:58.544Z,67.07
2023-04-18T09:57:57.531Z,69.93
2023-04-18T09:58:57.513Z,70.61
2023-04-18T09:59:57.504Z,68.24
2023-04-18T10:00:57.506Z,67.44
2023-04-18T10:01:57.585Z,65.63
2023-04-18T10:02:57.590Z,67.99
2023-04-18T10:03:57.630Z,66.96
2023-04-18T10:04:57.509Z,65.87
2023-04-18T10:05:57.850Z,67.01
2023-04-18T10:06:58.481Z,66.52
2023-04-18T10:07:57.464Z,65.51
2023-04-18T10:08:57.413Z,63.94
2023-04-18T10:09:57.428Z,64.03
2023-04-18T10:10:57.394Z,65.51
2023-04-18T10:11:57.402Z,64.60
2023-04-18T10:12:57.388Z,66.33
2023-04-18T10:13:57.356Z,65.40
2023-04-18T10:14:57.357Z,66.50
2023-04-18T10:15:57.380Z,63.66
2023-04-18T10:16:57.348Z,64.81
2023-04-18T10:18:58.348Z,64.88
2023-04-18T10:19:57.302Z,63.70
2023-04-18T10:20:57.301Z,62.67
2023-04-18T10:21:57.300Z,64.88
2023-04-18T10:22:57.323Z,65.20
2023-04-18T10:23:57.295Z,66.81
2023-04-18T10:24:57.250Z,64.63
2023-04-18T10:25:57.267Z,63.82
2023-04-18T10:26:57.272Z,65.60
2023-04-18T10:27:57.234Z,65.43
2023-04-18T10:28:57.398Z,67.83
2023-04-18T10:29:57.206Z,64.37
2023-04-18T10:30:57.207Z,64.46
2023-04-18T10:31:57.327Z,65.51
2023-04-18T10:32:57.193Z,65.46
2023-04-18T10:34:04.742Z,63.12
2023-04-18T10:34:59.158Z,63.49
2023-04-18T10:35:57.151Z,65.07
2023-04-18T10:36:57.171Z,65.25
2023-04-18T10:37:57.128Z,65.83
2023-04-18T10:38:57.131Z,67.22
2023-04-18T10:39:57.119Z,65.22
2023-04-18T10:40:57.104Z,66.48
2023-04-18T10:41:57.100Z,65.62
2023-04-18T10:42:57.094Z,64.57
2023-04-18T10:43:57.079Z,65.28
2023-04-18T10:44:57.066Z,64.15
2023-04-18T10:45:57.129Z,64.05
2023-04-18T10:46:57.096Z,62.90
2023-04-18T10:47:57.073Z,64.69
2023-04-18T10:48:57.014Z,64.16
2023-04-18T10:49:57.019Z,66.02
2023-04-18T10:50:57.004Z,64.73
2023-04-18T10:51:56.991Z,64.90
2023-04-18T10:52:56.993Z,64.58
2023-04-18T10:53:57.968Z,64.93
2023-04-18T10:54:58.989Z,63.91
2023-04-18T10:55:57.940Z,65.25
2023-04-18T10:56:56.945Z,63.43
2023-04-18T10:57:56.925Z,64.39
2023-04-18T10:58:56.918Z,65.56
2023-04-18T10:59:56.921Z,63.25
2023-04-18T11:00:56.934Z,63.64
2023-04-18T11:01:56.923Z,63.87
2023-04-18T11:02:57.025Z,64.56
2023-04-18T11:03:56.940Z,65.30
2023-04-18T11:04:56.859Z,64.53
2023-04-18T11:05:56.855Z,64.30
2023-04-18T11:06:56.853Z,65.30
2023-04-18T11:07:56.828Z,63.85
2023-04-18T11:08:56.810Z,63.78
2023-04-18T11:09:56.807Z,65.80
2023-04-18T11:10:56.853Z,65.34
2023-04-18T11:11:56.789Z,66.71
2023-04-18T11:12:56.831Z,63.26
2023-04-18T11:13:56.767Z,65.91
2023-04-18T11:14:56.751Z,64.39
2023-04-18T11:15:56.738Z,65.07
2023-04-18T11:16:56.772Z,64.44
2023-04-18T11:17:56.814Z,63.96
2023-04-18T11:18:56.714Z,64.68
2023-04-18T11:19:56.696Z,64.77
2023-04-18T11:20:56.688Z,65.20
2023-04-18T11:21:56.688Z,64.15
2023-04-18T11:22:56.661Z,64.80
2023-04-18T11:23:56.655Z,64.47
2023-04-18T11:24:56.647Z,64.50
2023-04-18T11:25:56.686Z,65.86
2023-04-18T11:26:56.647Z,67.83
2023-04-18T11:27:56.616Z,66.94
2023-04-18T11:28:56.604Z,64.98
2023-04-18T11:29:56.595Z,65.65
2023-04-18T11:30:56.589Z,64.80
2023-04-18T11:31:58.580Z,66.75
2023-04-18T11:32:57.584Z,65.28
2023-04-18T11:33:56.588Z,65.98
2023-04-18T11:34:56.547Z,65.47
2023-04-18T11:35:56.525Z,65.54
2023-04-18T11:36:56.536Z,66.48
2023-04-18T11:37:56.514Z,66.48
2023-04-18T11:38:56.494Z,66.76
2023-04-18T11:39:56.492Z,66.05
2023-04-18T11:40:56.474Z,66.59
2023-04-18T11:41:56.474Z,66.52
2023-04-18T11:42:56.475Z,64.43
2023-04-18T11:43:56.453Z,67.69
2023-04-18T11:44:56.434Z,66.84
2023-04-18T11:45:56.533Z,65.50
2023-04-18T11:46:56.424Z,66.87
2023-04-18T11:47:56.459Z,66.86
2023-04-18T11:48:56.385Z,67.17
2023-04-18T11:49:57.166Z,66.41
2023-04-18T11:50:57.362Z,66.84
2023-04-18T11:51:56.369Z,65.27
2023-04-18T11:52:56.365Z,65.28
2023-04-18T11:53:56.331Z,64.52
2023-04-18T11:54:56.338Z,64.06
2023-04-18T11:55:56.322Z,67.43
2023-04-18T11:56:56.325Z,66.15
2023-04-18T11:57:56.326Z,68.08
2023-04-18T11:58:56.296Z,66.96
2023-04-18T11:59:56.290Z,68.44
2023-04-18T12:00:56.275Z,65.76
2023-04-18T12:01:58.620Z,65.04
2023-04-18T12:02:57.309Z,66.81
2023-04-18T12:03:56.424Z,65.02
2023-04-18T12:04:56.461Z,64.04
2023-04-18T12:05:56.354Z,66.54
2023-04-18T12:06:56.221Z,66.57
2023-04-18T12:07:56.222Z,64.94
2023-04-18T12:08:56.188Z,65.56
2023-04-18T12:09:56.187Z,68.27
2023-04-18T12:10:56.162Z,64.97
2023-04-18T12:11:56.194Z,63.74
2023-04-18T12:12:56.151Z,66.12
2023-04-18T12:13:56.131Z,66.33
2023-04-18T12:14:56.360Z,64.87
2023-04-18T12:15:56.182Z,65.24
2023-04-18T12:16:56.110Z,66.28
2023-04-18T12:17:56.126Z,67.36
2023-04-18T12:18:56.082Z,66.99
2023-04-18T12:19:56.086Z,67.30
2023-04-18T12:20:56.062Z,66.94
2023-04-18T12:21:56.068Z,65.89
2023-04-18T12:22:56.042Z,65.59
2023-04-18T12:23:56.037Z,67.09
2023-04-18T12:24:56.031Z,69.22
2023-04-18T12:25:56.022Z,68.78
2023-04-18T12:26:56.017Z,67.62
2023-04-18T12:27:55.994Z,65.56
2023-04-18T12:28:55.994Z,68.40
2023-04-18T12:29:55.966Z,65.88
2023-04-18T12:30:55.977Z,67.75
2023-04-18T12:31:56.022Z,67.18
2023-04-18T12:32:56.009Z,66.27
2023-04-18T12:33:55.940Z,67.29
2023-04-18T12:34:55.913Z,66.08
2023-04-18T12:35:55.895Z,65.85
2023-04-18T12:36:55.902Z,68.82
2023-04-18T12:37:55.933Z,67.16
2023-04-18T12:38:55.877Z,67.37
2023-04-18T12:39:55.865Z,67.88
2023-04-18T12:40:55.874Z,66.66
2023-04-18T12:41:55.880Z,67.93
2023-04-18T12:42:55.831Z,68.63
2023-04-18T12:43:55.836Z,66.81
2023-04-18T12:44:55.812Z,66.88
2023-04-18T12:45:55.814Z,66.73
2023-04-18T12:46:55.998Z,66.70
2023-04-18T12:47:55.846Z,65.99
2023-04-18T12:48:55.758Z,65.71
2023-04-18T12:49:55.762Z,66.61
2023-04-18T12:50:55.743Z,68.35
2023-04-18T12:51:55.745Z,68.57
2023-04-18T12:52:55.743Z,65.66